AFR096 LFPG-KMCO
Flight info
| Callsign | AFR096 |
|---|---|
| Flight time | N/A |
| Altitude | 38000 |
| Route | ELCOB UT300 SENLO UN502 JSY DCT LIZAD DCT LULOX DCT LIMRI/M085F380 DCT 53N020W 54N030W 54N040W 52N050W DCT TUDEP/N0490F380 N528A HULTN/N0496F400 DCT ENE DCT JFK DCT SIE DCT TYI DCT FAY DCT CHS DCT OMN BITHO7 |
| Aircraft | A359/H-SABDE2E3GHIJ1J2J3J4J5M1P2RWXYZ/LB1D1 |
Departure
| Time | 2026-05-07 23:42 |
|---|---|
| Airport | Charles de Gaulle International Airport (LFPG) |
Arrival
| Time | N/A |
|---|---|
| Airport | Orlando International Airport (KMCO) |
| Time | Latitude | Longitude | Altitude | Speed | Heading |
|---|---|---|---|---|---|
| 2026-05-07 22:55 | 49.00703 | 2.58939 | 361 ft | 0 kts | 85° |
| 2026-05-07 23:15 | 49.00700 | 2.58904 | 360 ft | 4 kts | 77° |
| 2026-05-07 23:15 | 49.00692 | 2.58865 | 364 ft | 4 kts | 61° |
| 2026-05-07 23:15 | 49.00676 | 2.58834 | 368 ft | 4 kts | 29° |
| 2026-05-07 23:16 | 49.00660 | 2.58826 | 367 ft | 0 kts | 355° |
| 2026-05-07 23:22 | 49.00661 | 2.58826 | 367 ft | 0 kts | 355° |
| 2026-05-07 23:22 | 49.00677 | 2.58824 | 368 ft | 5 kts | 354° |
| 2026-05-07 23:22 | 49.00726 | 2.58817 | 363 ft | 10 kts | 355° |
| 2026-05-07 23:23 | 49.00806 | 2.58817 | 367 ft | 13 kts | 19° |
| 2026-05-07 23:23 | 49.00897 | 2.58886 | 364 ft | 15 kts | 6° |
| 2026-05-07 23:23 | 49.00941 | 2.58775 | 363 ft | 15 kts | 270° |
| 2026-05-07 23:23 | 49.00934 | 2.58598 | 366 ft | 19 kts | 267° |
| 2026-05-07 23:24 | 49.00925 | 2.58383 | 368 ft | 22 kts | 263° |
| 2026-05-07 23:24 | 49.00924 | 2.58159 | 364 ft | 19 kts | 298° |
| 2026-05-07 23:24 | 49.01027 | 2.58087 | 363 ft | 15 kts | 354° |
| 2026-05-07 23:24 | 49.01123 | 2.58075 | 363 ft | 12 kts | 356° |
| 2026-05-07 23:25 | 49.01199 | 2.58066 | 367 ft | 10 kts | 355° |
| 2026-05-07 23:25 | 49.01258 | 2.58058 | 365 ft | 8 kts | 355° |
| 2026-05-07 23:25 | 49.01312 | 2.58051 | 365 ft | 8 kts | 355° |
| 2026-05-07 23:25 | 49.01382 | 2.58043 | 362 ft | 12 kts | 355° |
| 2026-05-07 23:26 | 49.01478 | 2.58031 | 368 ft | 16 kts | 355° |
| 2026-05-07 23:26 | 49.01601 | 2.58018 | 367 ft | 19 kts | 355° |
| 2026-05-07 23:26 | 49.01744 | 2.57999 | 369 ft | 22 kts | 355° |
| 2026-05-07 23:26 | 49.01887 | 2.57964 | 366 ft | 20 kts | 339° |
| 2026-05-07 23:27 | 49.01996 | 2.57626 | 362 ft | 19 kts | 267° |
| 2026-05-07 23:27 | 49.01987 | 2.57430 | 360 ft | 19 kts | 266° |
| 2026-05-07 23:27 | 49.01977 | 2.57234 | 366 ft | 19 kts | 265° |
| 2026-05-07 23:28 | 49.01966 | 2.57037 | 365 ft | 19 kts | 264° |
| 2026-05-07 23:28 | 49.01955 | 2.56842 | 361 ft | 19 kts | 266° |
| 2026-05-07 23:28 | 49.01944 | 2.56645 | 368 ft | 19 kts | 265° |
| 2026-05-07 23:28 | 49.01933 | 2.56451 | 366 ft | 18 kts | 266° |
| 2026-05-07 23:29 | 49.01924 | 2.56259 | 364 ft | 18 kts | 264° |
| 2026-05-07 23:29 | 49.01913 | 2.56070 | 364 ft | 18 kts | 265° |
| 2026-05-07 23:29 | 49.01902 | 2.55877 | 368 ft | 18 kts | 265° |
| 2026-05-07 23:29 | 49.01893 | 2.55681 | 366 ft | 18 kts | 266° |
| 2026-05-07 23:30 | 49.01883 | 2.55489 | 366 ft | 18 kts | 265° |
| 2026-05-07 23:30 | 49.01871 | 2.55294 | 364 ft | 19 kts | 265° |
| 2026-05-07 23:30 | 49.01901 | 2.55118 | 368 ft | 18 kts | 322° |
| 2026-05-07 23:30 | 49.01944 | 2.54969 | 366 ft | 15 kts | 267° |
| 2026-05-07 23:31 | 49.01935 | 2.54806 | 366 ft | 16 kts | 265° |
| 2026-05-07 23:31 | 49.01926 | 2.54641 | 365 ft | 16 kts | 265° |
| 2026-05-07 23:31 | 49.01916 | 2.54472 | 367 ft | 16 kts | 265° |
| 2026-05-07 23:31 | 49.01907 | 2.54300 | 361 ft | 16 kts | 265° |
| 2026-05-07 23:32 | 49.01898 | 2.54123 | 365 ft | 17 kts | 266° |
| 2026-05-07 23:32 | 49.01890 | 2.53943 | 366 ft | 17 kts | 266° |
| 2026-05-07 23:32 | 49.01881 | 2.53761 | 362 ft | 17 kts | 265° |
| 2026-05-07 23:32 | 49.01871 | 2.53576 | 367 ft | 18 kts | 265° |
| 2026-05-07 23:33 | 49.01861 | 2.53390 | 367 ft | 18 kts | 262° |
| 2026-05-07 23:33 | 49.01848 | 2.53208 | 362 ft | 17 kts | 265° |
| 2026-05-07 23:33 | 49.01841 | 2.53023 | 363 ft | 18 kts | 267° |
| 2026-05-07 23:33 | 49.01830 | 2.52838 | 368 ft | 18 kts | 264° |
| 2026-05-07 23:34 | 49.01819 | 2.52651 | 366 ft | 18 kts | 265° |
| 2026-05-07 23:34 | 49.01810 | 2.52463 | 365 ft | 18 kts | 266° |
| 2026-05-07 23:34 | 49.01876 | 2.52327 | 369 ft | 15 kts | 302° |
| 2026-05-07 23:34 | 49.01900 | 2.52180 | 364 ft | 14 kts | 297° |
| 2026-05-07 23:35 | 49.01955 | 2.52118 | 366 ft | 5 kts | 345° |
| 2026-05-07 23:35 | 49.01994 | 2.52111 | 364 ft | 0 kts | 354° |
| 2026-05-07 23:40 | 49.02027 | 2.52108 | 364 ft | 10 kts | 359° |
| 2026-05-07 23:40 | 49.02104 | 2.52171 | 366 ft | 17 kts | 63° |
| 2026-05-07 23:40 | 49.02113 | 2.52236 | 365 ft | 0 kts | 84° |
| 2026-05-07 23:41 | 49.02129 | 2.52496 | 364 ft | 56 kts | 86° |
| 2026-05-07 23:41 | 49.02177 | 2.53386 | 366 ft | 112 kts | 85° |
| 2026-05-07 23:41 | 49.02255 | 2.54818 | 369 ft | 158 kts | 84° |
| 2026-05-07 23:42 | 49.02352 | 2.56607 | 723 ft | 170 kts | 86° |
| 2026-05-07 23:42 | 49.02426 | 2.58383 | 1369 ft | 167 kts | 86° |
| 2026-05-07 23:42 | 49.02524 | 2.60190 | 1860 ft | 176 kts | 86° |
| 2026-05-07 23:42 | 49.02630 | 2.62113 | 2232 ft | 188 kts | 86° |
| 2026-05-07 23:43 | 49.02740 | 2.64147 | 2581 ft | 202 kts | 85° |
| 2026-05-07 23:43 | 49.02858 | 2.66348 | 2975 ft | 216 kts | 86° |
| 2026-05-07 23:43 | 49.02989 | 2.68698 | 3365 ft | 230 kts | 86° |
| 2026-05-07 23:43 | 49.03129 | 2.71194 | 3763 ft | 244 kts | 84° |
| 2026-05-07 23:44 | 49.03617 | 2.73728 | 4162 ft | 257 kts | 60° |
| 2026-05-07 23:44 | 49.04877 | 2.75651 | 4740 ft | 262 kts | 29° |
| 2026-05-07 23:44 | 49.06630 | 2.76321 | 5394 ft | 264 kts | 358° |
| 2026-05-07 23:44 | 49.08375 | 2.75521 | 6058 ft | 267 kts | 327° |
| 2026-05-07 23:45 | 49.09612 | 2.73437 | 6743 ft | 269 kts | 295° |
| 2026-05-07 23:45 | 49.10068 | 2.70687 | 7452 ft | 269 kts | 276° |
| 2026-05-07 23:45 | 49.10238 | 2.67842 | 8190 ft | 270 kts | 274° |
| 2026-05-07 23:45 | 49.10179 | 2.64989 | 8959 ft | 270 kts | 258° |
| 2026-05-07 23:46 | 49.09593 | 2.62275 | 9788 ft | 269 kts | 247° |
| 2026-05-07 23:46 | 49.08856 | 2.59647 | 10438 ft | 274 kts | 246° |
| 2026-05-07 23:46 | 49.08079 | 2.56912 | 10844 ft | 288 kts | 246° |
| 2026-05-07 23:46 | 49.07275 | 2.54052 | 11266 ft | 300 kts | 246° |
| 2026-05-07 23:47 | 49.06447 | 2.51054 | 11718 ft | 312 kts | 246° |
| 2026-05-07 23:47 | 49.05581 | 2.47950 | 12174 ft | 323 kts | 246° |
| 2026-05-07 23:47 | 49.04684 | 2.44743 | 12590 ft | 335 kts | 246° |
| 2026-05-07 23:47 | 49.03760 | 2.41437 | 13000 ft | 346 kts | 246° |
| 2026-05-07 23:48 | 49.02854 | 2.38039 | 13421 ft | 357 kts | 250° |
| 2026-05-07 23:48 | 49.02293 | 2.34331 | 13914 ft | 366 kts | 263° |
| 2026-05-07 23:48 | 49.02231 | 2.30414 | 14444 ft | 371 kts | 270° |
| 2026-05-07 23:48 | 49.02293 | 2.26435 | 14596 ft | 376 kts | 270° |
| 2026-05-07 23:49 | 49.02353 | 2.22502 | 14684 ft | 377 kts | 270° |
| 2026-05-07 23:49 | 49.02408 | 2.18442 | 15149 ft | 379 kts | 270° |
| 2026-05-07 23:49 | 49.02460 | 2.14470 | 15771 ft | 381 kts | 269° |
| 2026-05-07 23:49 | 49.02508 | 2.10426 | 16388 ft | 383 kts | 269° |
| 2026-05-07 23:50 | 49.02556 | 2.06305 | 16978 ft | 386 kts | 269° |
| 2026-05-07 23:50 | 49.02601 | 2.02199 | 17545 ft | 389 kts | 269° |
| 2026-05-07 23:50 | 49.02644 | 1.98053 | 18134 ft | 392 kts | 269° |
| 2026-05-07 23:50 | 49.02686 | 1.93935 | 18678 ft | 396 kts | 269° |
| 2026-05-07 23:51 | 49.02727 | 1.89734 | 19212 ft | 399 kts | 269° |
| 2026-05-07 23:51 | 49.02767 | 1.85489 | 19760 ft | 402 kts | 269° |
| 2026-05-07 23:51 | 49.02805 | 1.81226 | 20308 ft | 404 kts | 269° |
| 2026-05-07 23:51 | 49.02842 | 1.76925 | 20848 ft | 407 kts | 269° |
| 2026-05-07 23:52 | 49.02878 | 1.72590 | 21373 ft | 411 kts | 268° |
| 2026-05-07 23:52 | 49.02913 | 1.68229 | 21907 ft | 414 kts | 268° |
| 2026-05-07 23:52 | 49.02946 | 1.63836 | 22451 ft | 416 kts | 268° |
| 2026-05-07 23:52 | 49.02977 | 1.59407 | 22986 ft | 419 kts | 268° |
| 2026-05-07 23:53 | 49.03007 | 1.54949 | 23509 ft | 422 kts | 268° |
| 2026-05-07 23:53 | 49.03036 | 1.50475 | 23966 ft | 425 kts | 268° |
| 2026-05-07 23:53 | 49.03062 | 1.45957 | 24410 ft | 427 kts | 268° |
| 2026-05-07 23:53 | 49.03088 | 1.41412 | 24848 ft | 430 kts | 268° |
| 2026-05-07 23:54 | 49.03112 | 1.36834 | 25279 ft | 433 kts | 268° |
| 2026-05-07 23:54 | 49.03134 | 1.32249 | 25697 ft | 436 kts | 268° |
| 2026-05-07 23:54 | 49.03154 | 1.27608 | 26141 ft | 438 kts | 268° |
| 2026-05-07 23:54 | 49.03173 | 1.22957 | 26563 ft | 440 kts | 268° |
| 2026-05-07 23:55 | 49.03214 | 1.18285 | 26977 ft | 443 kts | 269° |
| 2026-05-07 23:55 | 49.03340 | 1.13581 | 27404 ft | 446 kts | 271° |
| 2026-05-07 23:55 | 49.03509 | 1.08833 | 27813 ft | 449 kts | 271° |
| 2026-05-07 23:55 | 49.03685 | 1.04137 | 28205 ft | 451 kts | 271° |
| 2026-05-07 23:56 | 49.03857 | 0.99351 | 28595 ft | 454 kts | 271° |
| 2026-05-07 23:56 | 49.04018 | 0.94534 | 28971 ft | 456 kts | 270° |
| 2026-05-07 23:56 | 49.04169 | 0.89692 | 29342 ft | 459 kts | 270° |
| 2026-05-07 23:56 | 49.04313 | 0.84823 | 29732 ft | 461 kts | 270° |
| 2026-05-07 23:57 | 49.04452 | 0.79928 | 30063 ft | 464 kts | 270° |
| 2026-05-07 23:57 | 49.04588 | 0.75007 | 30346 ft | 466 kts | 270° |
| 2026-05-07 23:57 | 49.04723 | 0.70068 | 30658 ft | 468 kts | 270° |
| 2026-05-07 23:57 | 49.04857 | 0.65108 | 30955 ft | 469 kts | 270° |
| 2026-05-07 23:58 | 49.04989 | 0.60137 | 31241 ft | 470 kts | 270° |
| 2026-05-07 23:58 | 49.05120 | 0.55142 | 31512 ft | 472 kts | 270° |
| 2026-05-07 23:58 | 49.05250 | 0.50141 | 31814 ft | 472 kts | 270° |
| 2026-05-07 23:58 | 49.05377 | 0.45156 | 32224 ft | 470 kts | 270° |
| 2026-05-07 23:59 | 49.05500 | 0.40242 | 32608 ft | 469 kts | 270° |
| 2026-05-07 23:59 | 49.05622 | 0.35287 | 32964 ft | 468 kts | 270° |
| 2026-05-07 23:59 | 49.05741 | 0.30331 | 33323 ft | 466 kts | 270° |
| 2026-05-07 23:59 | 49.05858 | 0.25405 | 33678 ft | 465 kts | 270° |
| 2026-05-08 00:00 | 49.05973 | 0.20485 | 34020 ft | 463 kts | 270° |
| 2026-05-08 00:00 | 49.06085 | 0.15573 | 34308 ft | 462 kts | 270° |
| 2026-05-08 00:00 | 49.06194 | 0.10674 | 34523 ft | 463 kts | 270° |
| 2026-05-08 00:00 | 49.06302 | 0.05778 | 34725 ft | 463 kts | 270° |
| 2026-05-08 00:01 | 49.06406 | 0.00924 | 34932 ft | 463 kts | 270° |
| 2026-05-08 00:01 | 49.06509 | -0.03973 | 35159 ft | 463 kts | 270° |
| 2026-05-08 00:01 | 49.06611 | -0.08884 | 35362 ft | 463 kts | 270° |
| 2026-05-08 00:01 | 49.06710 | -0.13779 | 35558 ft | 463 kts | 270° |
| 2026-05-08 00:02 | 49.06808 | -0.18687 | 35740 ft | 463 kts | 270° |
| 2026-05-08 00:02 | 49.06903 | -0.23598 | 35933 ft | 463 kts | 270° |
| 2026-05-08 00:02 | 49.07000 | -0.28513 | 36097 ft | 463 kts | 270° |
| 2026-05-08 00:02 | 49.07094 | -0.33343 | 36268 ft | 463 kts | 270° |
| 2026-05-08 00:03 | 49.07183 | -0.38268 | 36442 ft | 464 kts | 270° |
| 2026-05-08 00:03 | 49.07269 | -0.43171 | 36600 ft | 464 kts | 270° |
| 2026-05-08 00:03 | 49.07354 | -0.48087 | 36758 ft | 464 kts | 270° |
| 2026-05-08 00:03 | 49.07437 | -0.53015 | 36914 ft | 464 kts | 270° |
| 2026-05-08 00:04 | 49.07518 | -0.57922 | 37057 ft | 464 kts | 270° |
| 2026-05-08 00:04 | 49.07597 | -0.62841 | 37215 ft | 464 kts | 270° |
| 2026-05-08 00:04 | 49.07675 | -0.67760 | 37351 ft | 464 kts | 270° |
| 2026-05-08 00:04 | 49.07749 | -0.72611 | 37478 ft | 464 kts | 270° |
| 2026-05-08 00:05 | 49.07823 | -0.77535 | 37610 ft | 464 kts | 270° |
| 2026-05-08 00:05 | 49.07894 | -0.82452 | 37737 ft | 464 kts | 270° |
| 2026-05-08 00:05 | 49.07964 | -0.87389 | 37860 ft | 465 kts | 270° |
| 2026-05-08 00:05 | 49.08031 | -0.92295 | 38005 ft | 464 kts | 270° |
| 2026-05-08 00:06 | 49.08159 | -1.02188 | 38032 ft | 469 kts | 270° |
| 2026-05-08 00:06 | 49.08281 | -1.12181 | 38033 ft | 471 kts | 270° |
| 2026-05-08 00:07 | 49.09059 | -1.22014 | 38037 ft | 472 kts | 281° |
| 2026-05-08 00:07 | 49.10565 | -1.31770 | 38032 ft | 472 kts | 282° |
| 2026-05-08 00:08 | 49.12153 | -1.41490 | 38028 ft | 471 kts | 282° |
| 2026-05-08 00:08 | 49.13716 | -1.51122 | 38029 ft | 471 kts | 282° |
| 2026-05-08 00:09 | 49.15270 | -1.60840 | 38026 ft | 471 kts | 282° |
| 2026-05-08 00:09 | 49.16808 | -1.70561 | 38026 ft | 471 kts | 282° |
| 2026-05-08 00:10 | 49.18338 | -1.80285 | 38025 ft | 470 kts | 282° |
| 2026-05-08 00:10 | 49.19846 | -1.89929 | 38022 ft | 470 kts | 282° |
| 2026-05-08 00:11 | 49.21358 | -1.99647 | 38021 ft | 469 kts | 282° |
| 2026-05-08 00:11 | 49.22883 | -2.09344 | 38021 ft | 470 kts | 282° |
| 2026-05-08 00:12 | 49.24550 | -2.19008 | 38021 ft | 470 kts | 283° |
| 2026-05-08 00:12 | 49.26231 | -2.28624 | 38020 ft | 470 kts | 283° |
| 2026-05-08 00:13 | 49.27889 | -2.38281 | 38019 ft | 470 kts | 283° |
| 2026-05-08 00:13 | 49.29527 | -2.47960 | 38019 ft | 470 kts | 283° |
| 2026-05-08 00:14 | 49.31155 | -2.57656 | 38020 ft | 470 kts | 283° |
| 2026-05-08 00:14 | 49.32768 | -2.67315 | 38032 ft | 470 kts | 283° |
| 2026-05-08 00:15 | 49.34382 | -2.77032 | 38020 ft | 470 kts | 283° |
| 2026-05-08 00:15 | 49.35984 | -2.86728 | 38020 ft | 470 kts | 283° |
| 2026-05-08 00:16 | 49.37313 | -2.94812 | 38018 ft | 470 kts | 282° |
| 2026-05-08 00:16 | 49.39160 | -3.06118 | 38010 ft | 470 kts | 282° |
| 2026-05-08 00:17 | 49.40738 | -3.15833 | 38015 ft | 470 kts | 282° |
| 2026-05-08 00:17 | 49.42047 | -3.23939 | 38010 ft | 470 kts | 282° |
| 2026-05-08 00:18 | 49.43611 | -3.33671 | 38010 ft | 470 kts | 282° |
| 2026-05-08 00:18 | 49.45419 | -3.44996 | 38011 ft | 470 kts | 282° |
| 2026-05-08 00:19 | 49.46706 | -3.53108 | 38011 ft | 470 kts | 282° |
| 2026-05-08 00:19 | 49.48247 | -3.62869 | 38006 ft | 469 kts | 282° |
| 2026-05-08 00:20 | 49.49775 | -3.72608 | 38007 ft | 468 kts | 282° |
| 2026-05-08 00:20 | 49.51293 | -3.82340 | 38007 ft | 468 kts | 282° |
| 2026-05-08 00:21 | 49.52795 | -3.92028 | 38007 ft | 468 kts | 282° |
| 2026-05-08 00:21 | 49.54297 | -4.01770 | 38007 ft | 468 kts | 282° |
| 2026-05-08 00:22 | 49.55791 | -4.11526 | 38007 ft | 467 kts | 282° |
| 2026-05-08 00:22 | 49.57274 | -4.21266 | 38007 ft | 467 kts | 282° |
| 2026-05-08 00:23 | 49.58760 | -4.31001 | 38005 ft | 467 kts | 283° |
| 2026-05-08 00:23 | 49.60757 | -4.40453 | 38007 ft | 468 kts | 288° |
| 2026-05-08 00:24 | 49.62921 | -4.49934 | 38010 ft | 468 kts | 288° |
| 2026-05-08 00:24 | 49.65094 | -4.59380 | 38007 ft | 467 kts | 288° |
| 2026-05-08 00:25 | 49.67239 | -4.68771 | 38007 ft | 467 kts | 288° |
| 2026-05-08 00:25 | 49.69382 | -4.78219 | 38007 ft | 467 kts | 288° |
| 2026-05-08 00:26 | 49.71520 | -4.87702 | 38012 ft | 467 kts | 288° |
| 2026-05-08 00:26 | 49.73647 | -4.97176 | 38012 ft | 467 kts | 287° |
| 2026-05-08 00:27 | 49.75765 | -5.06654 | 38001 ft | 467 kts | 287° |
| 2026-05-08 00:27 | 49.77863 | -5.16082 | 38001 ft | 466 kts | 287° |
| 2026-05-08 00:28 | 49.79967 | -5.25579 | 37991 ft | 466 kts | 287° |
| 2026-05-08 00:28 | 49.82064 | -5.35089 | 37991 ft | 466 kts | 287° |
| 2026-05-08 00:29 | 49.84138 | -5.44538 | 37995 ft | 466 kts | 287° |
| 2026-05-08 00:29 | 49.86213 | -5.54031 | 37996 ft | 465 kts | 287° |
| 2026-05-08 00:30 | 49.88280 | -5.63539 | 38004 ft | 465 kts | 287° |
| 2026-05-08 00:30 | 49.90339 | -5.73050 | 38004 ft | 465 kts | 287° |
| 2026-05-08 00:31 | 49.92376 | -5.82502 | 38012 ft | 465 kts | 287° |
| 2026-05-08 00:31 | 49.94420 | -5.92030 | 38013 ft | 465 kts | 287° |
| 2026-05-08 00:32 | 49.96455 | -6.01559 | 38018 ft | 464 kts | 287° |
| 2026-05-08 00:32 | 49.98478 | -6.11078 | 38019 ft | 464 kts | 287° |
| 2026-05-08 00:33 | 50.00491 | -6.20600 | 38021 ft | 464 kts | 286° |
| 2026-05-08 00:33 | 50.02486 | -6.30078 | 38035 ft | 464 kts | 286° |
| 2026-05-08 00:34 | 50.04487 | -6.39626 | 38019 ft | 465 kts | 286° |
| 2026-05-08 00:34 | 50.06481 | -6.49185 | 38014 ft | 464 kts | 286° |
| 2026-05-08 00:35 | 50.08453 | -6.58691 | 38030 ft | 464 kts | 286° |
| 2026-05-08 00:35 | 50.10430 | -6.68261 | 38019 ft | 464 kts | 286° |
| 2026-05-08 00:36 | 50.12394 | -6.77815 | 38020 ft | 464 kts | 285° |
| 2026-05-08 00:36 | 50.14355 | -6.87403 | 38036 ft | 464 kts | 285° |
| 2026-05-08 00:37 | 50.16309 | -6.97000 | 38017 ft | 465 kts | 285° |
| 2026-05-08 00:38 | 50.19229 | -7.11430 | 38017 ft | 465 kts | 285° |